createdAt,value
2023-02-14T00:00:35.599Z,10.37
2023-02-14T00:03:07.480Z,9.80
2023-02-14T00:05:39.319Z,9.77
2023-02-14T00:08:11.144Z,10.83
2023-02-14T00:10:42.866Z,9.83
2023-02-14T00:13:14.561Z,10.43
2023-02-14T00:15:46.443Z,10.27
2023-02-14T00:18:19.713Z,11.13
2023-02-14T00:20:51.511Z,10.17
2023-02-14T00:23:23.242Z,10.20
2023-02-14T00:25:54.935Z,9.63
2023-02-14T00:28:26.676Z,9.67
2023-02-14T00:30:58.713Z,9.50
2023-02-14T00:33:30.588Z,10.33
2023-02-14T00:36:09.942Z,9.57
2023-02-14T00:38:41.666Z,9.53
2023-02-14T00:41:19.269Z,9.83
2023-02-14T00:43:53.327Z,9.83
2023-02-14T00:46:25.559Z,9.80
2023-02-14T00:48:57.804Z,10.00
2023-02-14T00:51:29.976Z,9.67
2023-02-14T00:54:01.932Z,10.77
2023-02-14T00:56:35.894Z,8.20
2023-02-14T00:59:07.609Z,9.67
2023-02-14T01:01:39.565Z,9.87
2023-02-14T01:04:11.270Z,9.33
2023-02-14T01:06:44.122Z,9.57
2023-02-14T01:09:15.989Z,10.10
2023-02-14T01:11:48.750Z,10.20
2023-02-14T01:14:20.472Z,10.03
2023-02-14T01:16:52.196Z,9.97
2023-02-14T01:19:23.926Z,9.23
2023-02-14T01:21:55.671Z,9.93
2023-02-14T01:24:27.779Z,9.67
2023-02-14T01:26:59.622Z,9.47
2023-02-14T01:29:31.318Z,9.60
2023-02-14T01:32:03.351Z,9.30
2023-02-14T01:34:35.144Z,9.73
2023-02-14T01:37:06.902Z,10.87
2023-02-14T01:39:41.562Z,9.50
2023-02-14T01:42:13.290Z,12.07
2023-02-14T01:44:44.931Z,9.67
2023-02-14T01:47:17.447Z,9.57
2023-02-14T01:49:55.397Z,10.03
2023-02-14T01:52:33.342Z,9.63
2023-02-14T01:55:10.012Z,9.90
2023-02-14T01:57:49.850Z,8.57
2023-02-14T02:00:40.756Z,9.73
2023-02-14T02:03:13.666Z,10.43
2023-02-14T02:05:49.810Z,9.13
2023-02-14T02:08:21.993Z,9.23
2023-02-14T02:10:53.751Z,10.33
2023-02-14T02:13:25.501Z,10.27
2023-02-14T02:16:36.673Z,11.00
2023-02-14T02:19:30.284Z,10.03
2023-02-14T02:22:38.045Z,10.33
2023-02-14T02:25:43.864Z,9.23
2023-02-14T02:28:34.478Z,10.07
2023-02-14T02:31:26.903Z,9.77
2023-02-14T02:34:20.309Z,8.80
2023-02-14T02:37:12.524Z,9.10
2023-02-14T02:39:59.419Z,8.63
2023-02-14T02:42:46.420Z,10.23
2023-02-14T02:46:36.814Z,10.73
2023-02-14T02:49:45.571Z,9.07
2023-02-14T02:53:01.267Z,10.00
2023-02-14T02:56:16.348Z,9.57
2023-02-14T02:59:18.948Z,9.03
2023-02-14T03:02:07.383Z,9.57
2023-02-14T03:04:56.039Z,10.10
2023-02-14T03:07:39.490Z,8.70
2023-02-14T03:10:25.928Z,11.00
2023-02-14T03:13:42.761Z,8.57
2023-02-14T03:16:27.404Z,9.10
2023-02-14T03:19:47.949Z,9.93
2023-02-14T03:22:54.154Z,20.60
2023-02-14T03:25:29.674Z,9.80
2023-02-14T03:28:28.703Z,10.27
2023-02-14T03:31:17.028Z,10.23
2023-02-14T03:34:00.748Z,9.10
2023-02-14T03:36:42.305Z,9.23
2023-02-14T03:39:40.027Z,10.07
2023-02-14T03:42:20.139Z,8.67
2023-02-14T03:44:54.924Z,10.00
2023-02-14T03:47:32.042Z,9.00
2023-02-14T03:50:10.711Z,9.83
2023-02-14T03:52:43.707Z,10.37
2023-02-14T03:55:20.749Z,9.80
2023-02-14T03:58:08.876Z,8.40
2023-02-14T04:00:42.951Z,9.10
2023-02-14T04:03:18.067Z,9.80
2023-02-14T04:05:52.396Z,8.77
2023-02-14T04:08:27.789Z,8.73
2023-02-14T04:11:02.075Z,8.13
2023-02-14T04:13:36.787Z,9.07
2023-02-14T04:16:08.810Z,8.70
2023-02-14T04:18:59.163Z,8.77
2023-02-14T04:21:30.883Z,8.87
2023-02-14T04:24:02.615Z,8.40
2023-02-14T04:26:34.326Z,8.77
2023-02-14T04:29:06.031Z,8.30
2023-02-14T04:31:37.849Z,9.13
2023-02-14T04:34:09.604Z,8.77
2023-02-14T04:36:41.349Z,8.47
2023-02-14T04:39:13.128Z,7.80
2023-02-14T04:41:44.880Z,7.97
2023-02-14T04:44:16.587Z,9.00
2023-02-14T04:46:48.376Z,7.47
2023-02-14T04:49:20.268Z,7.77
2023-02-14T04:51:51.990Z,7.73
2023-02-14T04:54:23.746Z,7.27
2023-02-14T04:56:55.494Z,7.87
2023-02-14T04:59:27.206Z,8.00
2023-02-14T05:01:59.063Z,8.87
2023-02-14T05:04:30.782Z,9.10
2023-02-14T05:07:02.724Z,8.70
2023-02-14T05:09:34.510Z,9.83
2023-02-14T05:12:06.516Z,8.93
2023-02-14T05:14:38.313Z,10.40
2023-02-14T05:17:10.028Z,9.30
2023-02-14T05:19:41.765Z,9.93
2023-02-14T05:22:13.523Z,9.67
2023-02-14T05:24:45.222Z,9.30
2023-02-14T05:27:16.948Z,10.23
2023-02-14T05:29:48.702Z,10.03
2023-02-14T05:32:20.456Z,9.23
2023-02-14T05:34:52.172Z,10.90
2023-02-14T05:37:23.900Z,10.30
2023-02-14T05:39:55.653Z,10.93
2023-02-14T05:42:27.407Z,10.17
2023-02-14T05:44:59.211Z,10.43
2023-02-14T05:47:30.954Z,10.10
2023-02-14T05:50:03.308Z,9.67
2023-02-14T05:52:37.931Z,10.47
2023-02-14T05:55:10.785Z,10.53
2023-02-14T05:57:42.506Z,10.90
2023-02-14T06:00:14.847Z,11.13
2023-02-14T06:02:46.622Z,11.03
2023-02-14T06:05:20.071Z,9.77
2023-02-14T06:07:52.312Z,11.37
2023-02-14T06:10:25.449Z,10.37
2023-02-14T06:12:57.358Z,10.33
2023-02-14T06:15:29.101Z,8.93
2023-02-14T06:18:00.789Z,9.73
2023-02-14T06:20:32.616Z,10.63
2023-02-14T06:23:04.897Z,10.40
2023-02-14T06:25:36.686Z,9.27
2023-02-14T06:28:08.414Z,10.27
2023-02-14T06:30:40.300Z,8.90
2023-02-14T06:33:12.157Z,9.93
2023-02-14T06:35:43.922Z,8.83
2023-02-14T06:38:15.656Z,9.43
2023-02-14T06:40:47.364Z,9.23
2023-02-14T06:43:19.117Z,10.33
2023-02-14T06:45:50.864Z,9.80
2023-02-14T06:48:22.603Z,10.27
2023-02-14T06:50:54.435Z,10.73
2023-02-14T06:53:26.296Z,10.10
2023-02-14T06:55:58.057Z,11.03
2023-02-14T06:58:29.780Z,10.47
2023-02-14T07:01:01.812Z,10.47
2023-02-14T07:03:33.750Z,10.57
2023-02-14T07:06:05.689Z,11.13
2023-02-14T07:08:37.415Z,10.10
2023-02-14T07:11:09.199Z,10.57
2023-02-14T07:13:40.911Z,9.37
2023-02-14T07:16:12.757Z,10.23
2023-02-14T07:18:44.551Z,9.80
2023-02-14T07:21:16.382Z,9.80
2023-02-14T07:23:49.998Z,10.87
2023-02-14T07:26:21.729Z,9.20
2023-02-14T07:28:53.479Z,9.77
2023-02-14T07:31:25.279Z,10.13
2023-02-14T07:34:00.782Z,8.43
2023-02-14T07:36:32.597Z,9.87
2023-02-14T07:39:04.783Z,9.40
2023-02-14T07:41:36.820Z,10.20
2023-02-14T07:44:14.177Z,8.43
2023-02-14T07:46:45.890Z,10.57
2023-02-14T07:49:17.630Z,9.23
2023-02-14T07:51:49.381Z,10.30
2023-02-14T07:54:21.285Z,10.27
2023-02-14T07:56:53.097Z,9.70
2023-02-14T07:59:26.092Z,10.47
2023-02-14T08:01:57.968Z,10.27
2023-02-14T08:04:31.739Z,10.37
2023-02-14T08:07:04.623Z,10.67
2023-02-14T08:09:36.363Z,9.80
2023-02-14T08:12:26.597Z,10.20
2023-02-14T08:15:18.289Z,8.80
2023-02-14T08:17:50.007Z,8.83
2023-02-14T08:20:21.829Z,9.10
2023-02-14T08:22:53.647Z,8.97
2023-02-14T08:25:25.378Z,9.80
2023-02-14T08:27:57.114Z,8.93
2023-02-14T08:30:29.037Z,9.63
2023-02-14T08:33:00.892Z,9.73
2023-02-14T08:35:32.766Z,7.90
2023-02-14T08:38:05.048Z,7.93
2023-02-14T08:40:37.368Z,7.80
2023-02-14T08:43:10.009Z,9.73
2023-02-14T08:45:41.793Z,10.27
2023-02-14T08:48:13.882Z,9.93
2023-02-14T08:50:45.667Z,9.77
2023-02-14T08:53:17.463Z,8.10
2023-02-14T08:55:49.393Z,9.50
2023-02-14T08:58:21.139Z,8.73
2023-02-14T09:00:52.912Z,8.10
2023-02-14T09:03:25.248Z,8.20
2023-02-14T09:06:02.308Z,8.13
2023-02-14T09:08:35.041Z,7.50
2023-02-14T09:11:13.982Z,6.57
2023-02-14T09:13:46.552Z,6.87
2023-02-14T09:16:19.254Z,7.00
2023-02-14T09:18:52.926Z,6.83
2023-02-14T09:21:27.174Z,7.17
2023-02-14T09:23:58.963Z,6.53
2023-02-14T09:26:30.708Z,7.37
2023-02-14T09:29:02.596Z,7.07
2023-02-14T09:31:34.508Z,7.63
2023-02-14T09:34:25.204Z,8.10
2023-02-14T09:37:15.826Z,7.57
2023-02-14T09:39:47.598Z,7.60
2023-02-14T09:42:38.359Z,7.97
2023-02-14T09:45:15.223Z,8.00
2023-02-14T09:47:57.207Z,7.40
2023-02-14T09:50:49.716Z,6.90
2023-02-14T09:53:54.958Z,7.50
2023-02-14T09:56:50.763Z,6.30
2023-02-14T10:00:03.990Z,7.00
2023-02-14T10:02:44.771Z,6.77
2023-02-14T10:05:22.418Z,7.43
2023-02-14T10:08:07.980Z,7.53
2023-02-14T10:10:59.492Z,6.87
2023-02-14T10:13:40.575Z,7.57
2023-02-14T10:16:27.429Z,6.77
2023-02-14T10:19:16.639Z,6.73
2023-02-14T10:22:26.953Z,6.80
2023-02-14T10:25:46.346Z,5.87
2023-02-14T10:28:26.997Z,5.47
2023-02-14T10:31:11.488Z,6.60
2023-02-14T10:33:51.020Z,4.70
2023-02-14T10:36:38.332Z,5.87
2023-02-14T10:39:30.542Z,6.43
2023-02-14T10:42:25.961Z,6.57
2023-02-14T10:45:20.591Z,6.27
2023-02-14T10:48:16.598Z,5.27
2023-02-14T10:50:54.653Z,5.83
2023-02-14T10:53:45.130Z,6.23
2023-02-14T10:56:37.547Z,7.00
2023-02-14T10:59:24.335Z,6.63
2023-02-14T11:01:59.018Z,7.03
2023-02-14T11:04:32.240Z,6.77
2023-02-14T11:07:04.000Z,7.93
2023-02-14T11:09:35.715Z,7.63
2023-02-14T11:12:08.486Z,6.80
2023-02-14T11:14:40.764Z,7.57
2023-02-14T11:17:31.735Z,6.47
2023-02-14T11:20:22.523Z,7.10
2023-02-14T11:22:54.266Z,5.13
2023-02-14T11:25:29.478Z,7.27
2023-02-14T11:28:04.479Z,6.83
2023-02-14T11:30:42.038Z,6.30
2023-02-14T11:33:29.642Z,5.90
2023-02-14T11:36:05.138Z,5.67
2023-02-14T11:38:39.823Z,6.53
2023-02-14T11:41:14.861Z,6.13
2023-02-14T11:43:49.143Z,6.50
2023-02-14T11:46:20.897Z,6.13
2023-02-14T11:49:01.427Z,6.47
2023-02-14T11:51:45.424Z,5.83
2023-02-14T11:54:39.802Z,6.13
2023-02-14T11:57:14.071Z,6.23
2023-02-14T11:59:53.369Z,6.73
2023-02-14T12:02:49.010Z,5.90
2023-02-14T12:05:30.517Z,6.73
2023-02-14T12:08:04.983Z,6.23
2023-02-14T12:10:38.454Z,6.80
2023-02-14T12:13:10.126Z,6.17
2023-02-14T12:15:44.849Z,6.03
2023-02-14T12:18:25.031Z,6.37
2023-02-14T12:21:18.589Z,6.27
2023-02-14T12:24:03.327Z,6.73
2023-02-14T12:27:20.545Z,5.43
2023-02-14T12:30:07.777Z,6.43
2023-02-14T12:32:51.367Z,6.53
2023-02-14T12:36:00.690Z,6.37
2023-02-14T12:39:01.358Z,6.17
2023-02-14T12:42:00.159Z,5.80
2023-02-14T12:44:34.890Z,5.53
2023-02-14T12:47:30.720Z,6.37
2023-02-14T12:50:17.508Z,6.83
2023-02-14T12:53:04.228Z,7.40
2023-02-14T12:55:57.713Z,6.77
2023-02-14T12:58:44.410Z,6.37
2023-02-14T13:01:38.117Z,6.63
2023-02-14T13:04:45.020Z,7.50
2023-02-14T13:07:16.709Z,6.17
2023-02-14T13:10:14.915Z,7.73
2023-02-14T13:13:18.699Z,6.57
2023-02-14T13:16:12.447Z,6.93
2023-02-14T13:18:50.806Z,7.50
2023-02-14T13:21:26.254Z,6.60
2023-02-14T13:24:21.653Z,7.73
2023-02-14T13:26:59.061Z,7.37
2023-02-14T13:29:41.714Z,6.83
2023-02-14T13:32:18.489Z,7.13
2023-02-14T13:34:51.245Z,5.87
2023-02-14T13:37:24.880Z,6.97
2023-02-14T13:39:59.279Z,6.77
2023-02-14T13:42:58.134Z,5.43
2023-02-14T13:45:30.304Z,6.40
2023-02-14T13:48:15.070Z,7.17
2023-02-14T13:50:54.571Z,6.20
2023-02-14T13:53:35.516Z,6.70
2023-02-14T13:56:13.204Z,8.10
2023-02-14T13:59:01.466Z,5.80
2023-02-14T14:01:50.596Z,6.13
2023-02-14T14:04:28.352Z,6.47
2023-02-14T14:07:03.210Z,6.97
2023-02-14T14:09:44.137Z,7.67
2023-02-14T14:12:27.925Z,8.93
2023-02-14T14:15:05.968Z,6.80
2023-02-14T14:17:42.087Z,6.93
2023-02-14T14:20:18.658Z,6.37
2023-02-14T14:22:57.340Z,7.17
2023-02-14T14:25:33.542Z,7.47
2023-02-14T14:28:24.358Z,7.57
2023-02-14T14:30:56.237Z,6.83
2023-02-14T14:33:33.564Z,5.87
2023-02-14T14:36:08.752Z,6.33
2023-02-14T14:38:49.651Z,6.40
2023-02-14T14:41:29.259Z,6.93
2023-02-14T14:44:01.337Z,6.87
2023-02-14T14:46:33.709Z,6.00
2023-02-14T14:49:10.432Z,5.03
2023-02-14T14:51:43.254Z,6.37
2023-02-14T14:54:21.242Z,6.93
2023-02-14T14:56:59.225Z,6.13
2023-02-14T14:59:40.574Z,6.53
2023-02-14T15:02:24.472Z,7.27
2023-02-14T15:04:56.230Z,6.27
2023-02-14T15:07:33.586Z,7.87
2023-02-14T15:10:25.380Z,7.30
2023-02-14T15:13:17.666Z,6.40
2023-02-14T15:15:51.217Z,6.57
2023-02-14T15:18:23.342Z,8.47
2023-02-14T15:20:55.340Z,8.07
2023-02-14T15:23:28.140Z,7.93
2023-02-14T15:26:00.957Z,6.60
2023-02-14T15:28:35.505Z,7.87
2023-02-14T15:31:07.866Z,8.13
2023-02-14T15:33:40.224Z,8.40
2023-02-14T15:36:21.331Z,8.53
2023-02-14T15:38:56.670Z,8.23
2023-02-14T15:41:28.517Z,6.97
2023-02-14T15:44:00.297Z,6.93
2023-02-14T15:46:36.798Z,7.63
2023-02-14T15:49:10.597Z,7.83
2023-02-14T15:51:43.379Z,6.80
2023-02-14T15:54:31.677Z,7.03
2023-02-14T15:57:05.251Z,7.40
2023-02-14T15:59:42.453Z,7.20
2023-02-14T16:02:23.211Z,6.73
2023-02-14T16:04:55.300Z,7.33
2023-02-14T16:07:30.532Z,8.50
2023-02-14T16:10:28.124Z,6.90
2023-02-14T16:13:15.119Z,6.90
2023-02-14T16:15:58.445Z,7.50
2023-02-14T16:18:52.077Z,8.40
2023-02-14T16:21:32.124Z,7.87
2023-02-14T16:24:06.947Z,7.70
2023-02-14T16:26:41.152Z,8.17
2023-02-14T16:29:16.041Z,9.50
2023-02-14T16:32:14.766Z,7.63
2023-02-14T16:34:48.232Z,7.70
2023-02-14T16:37:24.039Z,7.27
2023-02-14T16:39:59.179Z,8.27
2023-02-14T16:42:32.646Z,7.20
2023-02-14T16:45:04.849Z,7.17
2023-02-14T16:47:36.613Z,8.30
2023-02-14T16:50:08.871Z,7.27
2023-02-14T16:52:41.449Z,9.20
2023-02-14T16:55:19.807Z,8.37
2023-02-14T16:57:53.079Z,8.50
2023-02-14T17:00:25.959Z,6.90
2023-02-14T17:03:06.213Z,7.93
2023-02-14T17:05:40.605Z,7.77
2023-02-14T17:08:14.907Z,8.17
2023-02-14T17:10:48.618Z,7.90
2023-02-14T17:13:25.061Z,8.13
2023-02-14T17:15:57.293Z,7.90
2023-02-14T17:18:31.422Z,9.20
2023-02-14T17:21:04.340Z,8.20
2023-02-14T17:23:36.074Z,9.30
2023-02-14T17:26:07.870Z,9.57
2023-02-14T17:28:39.744Z,8.67
2023-02-14T17:31:11.838Z,8.23
2023-02-14T17:33:43.799Z,8.10
2023-02-14T17:36:15.763Z,10.07
2023-02-14T17:38:47.613Z,7.53
2023-02-14T17:41:22.255Z,8.10
2023-02-14T17:43:54.869Z,7.60
2023-02-14T17:46:28.592Z,7.77
2023-02-14T17:49:02.612Z,8.30
2023-02-14T17:51:34.408Z,7.90
2023-02-14T17:54:06.237Z,8.53
2023-02-14T17:56:38.048Z,9.00
2023-02-14T17:59:09.990Z,7.60
2023-02-14T18:01:41.815Z,7.80
2023-02-14T18:04:13.635Z,7.70
2023-02-14T18:06:45.404Z,7.70
2023-02-14T18:09:19.313Z,8.67
2023-02-14T18:11:51.166Z,7.33
2023-02-14T18:14:23.040Z,8.53
2023-02-14T18:16:54.801Z,7.97
2023-02-14T18:19:26.601Z,7.97
2023-02-14T18:21:58.387Z,7.23
2023-02-14T18:24:30.104Z,7.17
2023-02-14T18:27:02.912Z,8.33
2023-02-14T18:29:36.160Z,7.43
2023-02-14T18:32:07.951Z,7.53
2023-02-14T18:34:39.816Z,9.07
2023-02-14T18:37:13.620Z,9.23
2023-02-14T18:39:45.421Z,9.20
2023-02-14T18:42:17.438Z,7.83
2023-02-14T18:44:49.139Z,8.10
2023-02-14T18:47:21.110Z,7.73
2023-02-14T18:49:52.981Z,7.83
2023-02-14T18:52:24.916Z,7.13
2023-02-14T18:54:58.509Z,7.23
2023-02-14T18:57:31.403Z,7.67
2023-02-14T19:00:06.942Z,7.43
2023-02-14T19:02:41.962Z,7.17
2023-02-14T19:05:13.896Z,6.67
2023-02-14T19:07:46.072Z,7.63
2023-02-14T19:10:17.976Z,7.10
2023-02-14T19:12:49.777Z,6.47
2023-02-14T19:15:21.595Z,6.67
2023-02-14T19:17:54.195Z,5.37
2023-02-14T19:20:26.347Z,6.17
2023-02-14T19:22:58.065Z,7.00
2023-02-14T19:25:32.501Z,6.47
2023-02-14T19:28:06.637Z,7.07
2023-02-14T19:30:38.764Z,6.60
2023-02-14T19:33:12.467Z,6.87
2023-02-14T19:35:44.240Z,5.73
2023-02-14T19:38:16.654Z,5.70
2023-02-14T19:40:48.785Z,6.70
2023-02-14T19:43:21.111Z,6.17
2023-02-14T19:45:53.239Z,6.43
2023-02-14T19:48:25.122Z,6.87
2023-02-14T19:51:00.607Z,6.43
2023-02-14T19:53:34.734Z,6.50
2023-02-14T19:56:06.470Z,7.13
2023-02-14T19:58:38.694Z,7.50
2023-02-14T20:01:46.193Z,7.80
2023-02-14T20:04:26.288Z,8.00
2023-02-14T20:06:58.742Z,7.23
2023-02-14T20:09:30.466Z,8.17
2023-02-14T20:12:02.211Z,8.13
2023-02-14T20:14:49.829Z,7.30
2023-02-14T20:17:22.800Z,7.13
2023-02-14T20:19:55.848Z,6.37
2023-02-14T20:22:27.937Z,6.90
2023-02-14T20:24:59.790Z,8.03
2023-02-14T20:27:31.576Z,9.00
2023-02-14T20:30:05.152Z,7.40
2023-02-14T20:32:37.217Z,7.73
2023-02-14T20:35:08.993Z,8.07
2023-02-14T20:37:40.703Z,8.70
2023-02-14T20:40:13.267Z,6.30
2023-02-14T20:42:45.323Z,8.03
2023-02-14T20:45:17.203Z,7.90
2023-02-14T20:47:49.060Z,7.03
2023-02-14T20:50:20.779Z,7.03
2023-02-14T20:52:52.496Z,7.10
2023-02-14T20:55:26.894Z,5.37
2023-02-14T20:58:02.375Z,5.83
2023-02-14T21:00:34.140Z,6.60
2023-02-14T21:03:06.123Z,5.87
2023-02-14T21:05:37.969Z,5.73
2023-02-14T21:08:09.740Z,6.27
2023-02-14T21:10:41.551Z,5.43
2023-02-14T21:13:13.365Z,5.90
2023-02-14T21:15:45.092Z,6.40
2023-02-14T21:18:17.166Z,6.87
2023-02-14T21:20:50.812Z,6.93
2023-02-14T21:23:22.592Z,6.90
2023-02-14T21:25:54.414Z,7.00
2023-02-14T21:28:26.285Z,8.50
2023-02-14T21:31:05.087Z,7.07
2023-02-14T21:33:37.368Z,6.37
2023-02-14T21:36:14.251Z,6.80
2023-02-14T21:38:46.346Z,6.77
2023-02-14T21:41:20.466Z,6.30
2023-02-14T21:43:54.007Z,6.47
2023-02-14T21:46:31.176Z,9.00
2023-02-14T21:49:23.008Z,6.07
2023-02-14T21:51:54.802Z,7.00
2023-02-14T21:54:26.616Z,6.33
2023-02-14T21:56:58.327Z,6.87
2023-02-14T21:59:30.075Z,7.13
2023-02-14T22:02:01.781Z,6.57
2023-02-14T22:04:35.391Z,6.27
2023-02-14T22:07:07.124Z,6.37
2023-02-14T22:09:38.928Z,6.70
2023-02-14T22:12:10.745Z,6.60
2023-02-14T22:14:42.466Z,7.03
2023-02-14T22:17:14.226Z,6.80
2023-02-14T22:19:47.659Z,7.07
2023-02-14T22:22:19.450Z,7.00
2023-02-14T22:24:51.168Z,7.30
2023-02-14T22:27:22.874Z,5.97
2023-02-14T22:29:54.771Z,7.20
2023-02-14T22:32:26.571Z,6.30
2023-02-14T22:34:58.371Z,5.60
2023-02-14T22:37:30.608Z,5.23
2023-02-14T22:40:02.396Z,5.17
2023-02-14T22:42:34.189Z,5.73
2023-02-14T22:45:06.604Z,3.63
2023-02-14T22:47:38.418Z,4.80
2023-02-14T22:50:10.578Z,4.73
2023-02-14T22:52:42.392Z,4.77
2023-02-14T22:55:14.194Z,4.27
2023-02-14T22:57:45.988Z,5.07
2023-02-14T23:00:18.003Z,4.97
2023-02-14T23:02:49.809Z,4.60
2023-02-14T23:05:21.571Z,5.90
2023-02-14T23:07:53.321Z,5.17
2023-02-14T23:10:25.080Z,6.47
2023-02-14T23:13:15.664Z,5.60
2023-02-14T23:16:06.069Z,5.07
2023-02-14T23:18:56.204Z,5.13
2023-02-14T23:21:46.635Z,5.57
2023-02-14T23:24:18.329Z,4.63
2023-02-14T23:26:50.928Z,5.47
2023-02-14T23:29:22.669Z,5.03
2023-02-14T23:31:54.449Z,4.80
2023-02-14T23:34:27.922Z,5.90
2023-02-14T23:36:59.794Z,5.40
2023-02-14T23:39:36.664Z,6.33
2023-02-14T23:42:13.851Z,6.40
2023-02-14T23:44:46.257Z,6.00
2023-02-14T23:47:18.317Z,5.50
2023-02-14T23:49:50.032Z,5.70
2023-02-14T23:52:21.758Z,6.30
2023-02-14T23:54:53.482Z,5.67
2023-02-14T23:57:25.199Z,5.07
2023-02-14T23:59:56.926Z,5.60
